sensor_id;sensor_type;location;lat;lon;timestamp;pressure;altitude;pressure_sealevel;temperature;humidity
61537;BME280;48695;53.480;-6.300;2023-03-03T00:02:06;102453.16;;;9.78;58.00
61537;BME280;48695;53.480;-6.300;2023-03-03T00:04:32;102454.06;;;9.78;57.82
61537;BME280;48695;53.480;-6.300;2023-03-03T00:06:57;102449.66;;;9.76;57.92
61537;BME280;48695;53.480;-6.300;2023-03-03T00:09:22;102451.41;;;9.77;57.67
61537;BME280;48695;53.480;-6.300;2023-03-03T00:11:53;102454.94;;;9.82;57.41
61537;BME280;48695;53.480;-6.300;2023-03-03T00:14:28;102453.19;;;9.81;57.77
61537;BME280;48695;53.480;-6.300;2023-03-03T00:16:55;102449.66;;;9.76;57.63
61537;BME280;48695;53.480;-6.300;2023-03-03T00:19:21;102452.28;;;9.77;57.31
61537;BME280;48695;53.480;-6.300;2023-03-03T00:21:49;102446.19;;;9.77;57.08
61537;BME280;48695;53.480;-6.300;2023-03-03T00:24:37;102448.81;;;9.77;56.61
61537;BME280;48695;53.480;-6.300;2023-03-03T00:27:17;102440.94;;;9.72;55.71
61537;BME280;48695;53.480;-6.300;2023-03-03T00:29:49;102449.63;;;9.70;55.55
61537;BME280;48695;53.480;-6.300;2023-03-03T00:35:18;102423.34;;;9.48;55.93
61537;BME280;48695;53.480;-6.300;2023-03-03T00:37:47;102446.00;;;9.55;55.77
61537;BME280;48695;53.480;-6.300;2023-03-03T00:40:31;102426.78;;;9.44;55.46
61537;BME280;48695;53.480;-6.300;2023-03-03T00:42:59;102423.25;;;9.39;55.70
61537;BME280;48695;53.480;-6.300;2023-03-03T00:47:51;102434.56;;;9.38;56.18
61537;BME280;48695;53.480;-6.300;2023-03-03T00:50:31;102445.88;;;9.42;56.26
61537;BME280;48695;53.480;-6.300;2023-03-03T00:52:59;102448.50;;;9.43;55.94
61537;BME280;48695;53.480;-6.300;2023-03-03T00:55:25;102453.69;;;9.42;56.07
61537;BME280;48695;53.480;-6.300;2023-03-03T00:57:51;102452.81;;;9.41;56.50
61537;BME280;48695;53.480;-6.300;2023-03-03T01:00:17;102455.41;;;9.40;56.70
61537;BME280;48695;53.480;-6.300;2023-03-03T01:02:42;102454.53;;;9.39;56.38
61537;BME280;48695;53.480;-6.300;2023-03-03T01:05:12;102456.28;;;9.39;56.71
61537;BME280;48695;53.480;-6.300;2023-03-03T01:07:38;102449.28;;;9.34;56.59
61537;BME280;48695;53.480;-6.300;2023-03-03T01:10:03;102450.16;;;9.33;56.49
61537;BME280;48695;53.480;-6.300;2023-03-03T01:12:29;102452.72;;;9.32;56.57
61537;BME280;48695;53.480;-6.300;2023-03-03T01:14:54;102451.00;;;9.34;56.64
61537;BME280;48695;53.480;-6.300;2023-03-03T01:17:20;102455.34;;;9.33;56.72
61537;BME280;48695;53.480;-6.300;2023-03-03T01:19:45;102454.50;;;9.34;56.82
61537;BME280;48695;53.480;-6.300;2023-03-03T01:22:11;102439.63;;;9.27;56.83
61537;BME280;48695;53.480;-6.300;2023-03-03T01:24:36;102460.56;;;9.35;56.57
61537;BME280;48695;53.480;-6.300;2023-03-03T01:27:02;102443.91;;;9.21;56.85
61537;BME280;48695;53.480;-6.300;2023-03-03T01:29:27;102429.06;;;9.14;56.69
61537;BME280;48695;53.480;-6.300;2023-03-03T01:31:52;102450.03;;;9.24;56.52
61537;BME280;48695;53.480;-6.300;2023-03-03T01:34:18;102458.78;;;9.32;56.69
61537;BME280;48695;53.480;-6.300;2023-03-03T01:36:43;102458.78;;;9.32;57.17
61537;BME280;48695;53.480;-6.300;2023-03-03T01:39:12;102457.94;;;9.32;56.85
61537;BME280;48695;53.480;-6.300;2023-03-03T01:41:37;102455.31;;;9.30;57.17
61537;BME280;48695;53.480;-6.300;2023-03-03T01:44:03;102459.66;;;9.30;56.88
61537;BME280;48695;53.480;-6.300;2023-03-03T01:46:54;102461.41;;;9.31;56.52
61537;BME280;48695;53.480;-6.300;2023-03-03T01:49:28;102459.66;;;9.30;56.87
61537;BME280;48695;53.480;-6.300;2023-03-03T01:52:00;102454.38;;;9.24;57.05
61537;BME280;48695;53.480;-6.300;2023-03-03T01:54:50;102457.88;;;9.26;56.56
61537;BME280;48695;53.480;-6.300;2023-03-03T01:57:26;102466.56;;;9.25;57.08
61537;BME280;48695;53.480;-6.300;2023-03-03T01:59:54;102470.03;;;9.24;57.16
61537;BME280;48695;53.480;-6.300;2023-03-03T02:02:21;102461.28;;;9.19;57.28
61537;BME280;48695;53.480;-6.300;2023-03-03T02:04:48;102462.16;;;9.21;56.92
61537;BME280;48695;53.480;-6.300;2023-03-03T02:07:15;102427.16;;;8.99;57.13
61537;BME280;48695;53.480;-6.300;2023-03-03T02:10:08;102460.41;;;9.21;56.84
61537;BME280;48695;53.480;-6.300;2023-03-03T02:12:41;102461.28;;;9.20;57.57
61537;BME280;48695;53.480;-6.300;2023-03-03T02:15:26;102462.16;;;9.19;57.14
61537;BME280;48695;53.480;-6.300;2023-03-03T02:17:54;102465.63;;;9.18;57.30
61537;BME280;48695;53.480;-6.300;2023-03-03T02:28:23;102464.75;;;9.18;57.46
61537;BME280;48695;53.480;-6.300;2023-03-03T02:30:54;102462.97;;;9.17;57.92
61537;BME280;48695;53.480;-6.300;2023-03-03T02:33:19;102466.44;;;9.16;57.57
61537;BME280;48695;53.480;-6.300;2023-03-03T02:35:45;102448.13;;;9.09;57.90
61537;BME280;48695;53.480;-6.300;2023-03-03T02:38:29;102462.13;;;9.18;57.58
61537;BME280;48695;53.480;-6.300;2023-03-03T02:43:40;102468.22;;;9.20;56.83
61537;BME280;48695;53.480;-6.300;2023-03-03T02:46:06;102467.31;;;9.15;57.78
61537;BME280;48695;53.480;-6.300;2023-03-03T02:48:32;102473.38;;;9.14;58.02
61537;BME280;48695;53.480;-6.300;2023-03-03T02:50:58;102445.41;;;8.97;58.23
61537;BME280;48695;53.480;-6.300;2023-03-03T02:53:23;102472.50;;;9.13;58.10
61537;BME280;48695;53.480;-6.300;2023-03-03T02:55:48;102471.63;;;9.13;57.83
61537;BME280;48695;53.480;-6.300;2023-03-03T02:58:14;102471.63;;;9.13;57.88
61537;BME280;48695;53.480;-6.300;2023-03-03T03:00:39;102459.38;;;9.05;58.25
61537;BME280;48695;53.480;-6.300;2023-03-03T03:03:05;102466.38;;;9.11;58.10
61537;BME280;48695;53.480;-6.300;2023-03-03T03:05:30;102466.44;;;9.13;58.03
61537;BME280;48695;53.480;-6.300;2023-03-03T03:07:55;102467.25;;;9.10;58.24
61537;BME280;48695;53.480;-6.300;2023-03-03T03:10:21;102428.84;;;8.95;58.01
61537;BME280;48695;53.480;-6.300;2023-03-03T03:12:46;102471.63;;;9.13;58.30
61537;BME280;48695;53.480;-6.300;2023-03-03T03:15:12;102469.88;;;9.12;58.17
61537;BME280;48695;53.480;-6.300;2023-03-03T03:17:38;102461.16;;;9.09;58.53
61537;BME280;48695;53.480;-6.300;2023-03-03T03:20:04;102448.06;;;9.05;58.40
61537;BME280;48695;53.480;-6.300;2023-03-03T03:22:29;102400.00;;;8.77;57.93
61537;BME280;48695;53.480;-6.300;2023-03-03T03:24:54;102463.81;;;9.13;58.08
61537;BME280;48695;53.480;-6.300;2023-03-03T03:27:20;102452.47;;;9.10;58.01
61537;BME280;48695;53.480;-6.300;2023-03-03T03:29:47;102456.00;;;9.13;58.03
61537;BME280;48695;53.480;-6.300;2023-03-03T03:32:12;102457.69;;;9.12;58.15
61537;BME280;48695;53.480;-6.300;2023-03-03T03:34:38;102456.81;;;9.10;58.37
61537;BME280;48695;53.480;-6.300;2023-03-03T03:37:03;102462.03;;;9.10;58.23
61537;BME280;48695;53.480;-6.300;2023-03-03T03:39:29;102454.16;;;9.05;58.14
61537;BME280;48695;53.480;-6.300;2023-03-03T03:41:54;102447.16;;;8.98;57.96
61537;BME280;48695;53.480;-6.300;2023-03-03T03:44:20;102448.84;;;8.96;57.87
61537;BME280;48695;53.480;-6.300;2023-03-03T03:46:45;102456.75;;;9.04;58.20
61537;BME280;48695;53.480;-6.300;2023-03-03T03:49:10;102462.78;;;8.98;58.16
61537;BME280;48695;53.480;-6.300;2023-03-03T03:51:36;102452.34;;;8.98;58.30
61537;BME280;48695;53.480;-6.300;2023-03-03T03:54:05;102420.91;;;8.83;58.19
61537;BME280;48695;53.480;-6.300;2023-03-03T03:56:30;102444.53;;;8.98;58.15
61537;BME280;48695;53.480;-6.300;2023-03-03T03:58:56;102445.41;;;9.00;58.11
61537;BME280;48695;53.480;-6.300;2023-03-03T04:01:21;102438.41;;;8.95;58.41
61537;BME280;48695;53.480;-6.300;2023-03-03T04:03:47;102437.53;;;8.96;58.26
61537;BME280;48695;53.480;-6.300;2023-03-03T04:06:13;102431.41;;;8.91;58.38
61537;BME280;48695;53.480;-6.300;2023-03-03T04:08:38;102432.31;;;8.93;58.60
61537;BME280;48695;53.480;-6.300;2023-03-03T04:11:04;102447.94;;;8.93;58.40
61537;BME280;48695;53.480;-6.300;2023-03-03T04:13:30;102448.81;;;8.95;58.86
61537;BME280;48695;53.480;-6.300;2023-03-03T04:15:59;102440.06;;;8.88;58.76
61537;BME280;48695;53.480;-6.300;2023-03-03T04:18:25;102452.31;;;8.97;58.77
61537;BME280;48695;53.480;-6.300;2023-03-03T04:20:50;102455.78;;;8.96;58.94
61537;BME280;48695;53.480;-6.300;2023-03-03T04:23:17;102460.97;;;8.94;58.72
61537;BME280;48695;53.480;-6.300;2023-03-03T04:25:45;102446.97;;;8.86;59.02
61537;BME280;48695;53.480;-6.300;2023-03-03T04:28:12;102459.25;;;8.93;58.81
61537;BME280;48695;53.480;-6.300;2023-03-03T04:30:37;102464.47;;;8.96;59.33
61537;BME280;48695;53.480;-6.300;2023-03-03T04:33:03;102459.19;;;8.90;59.15
61537;BME280;48695;53.480;-6.300;2023-03-03T04:35:28;102464.41;;;8.90;58.93
61537;BME280;48695;53.480;-6.300;2023-03-03T04:37:53;102466.25;;;8.97;59.17
61537;BME280;48695;53.480;-6.300;2023-03-03T04:40:19;102464.47;;;8.96;58.93
61537;BME280;48695;53.480;-6.300;2023-03-03T04:42:44;102470.56;;;8.97;59.12
61537;BME280;48695;53.480;-6.300;2023-03-03T04:45:11;102465.34;;;8.97;58.82
61537;BME280;48695;53.480;-6.300;2023-03-03T04:47:36;102464.41;;;8.90;58.85
61537;BME280;48695;53.480;-6.300;2023-03-03T04:50:02;102467.94;;;8.95;58.82
61537;BME280;48695;53.480;-6.300;2023-03-03T04:52:28;102429.47;;;8.73;59.00
61537;BME280;48695;53.480;-6.300;2023-03-03T04:54:53;102473.16;;;8.95;59.13
61537;BME280;48695;53.480;-6.300;2023-03-03T04:57:19;102446.91;;;8.80;59.07
61537;BME280;48695;53.480;-6.300;2023-03-03T04:59:44;102439.94;;;8.79;58.94
61537;BME280;48695;53.480;-6.300;2023-03-03T05:02:10;102467.91;;;8.92;58.96
61537;BME280;48695;53.480;-6.300;2023-03-03T05:04:37;102465.34;;;8.95;59.21
61537;BME280;48695;53.480;-6.300;2023-03-03T05:07:03;102469.63;;;8.92;59.38
61537;BME280;48695;53.480;-6.300;2023-03-03T05:09:29;102471.41;;;8.94;59.37
61537;BME280;48695;53.480;-6.300;2023-03-03T05:11:54;102471.41;;;8.94;59.28
61537;BME280;48695;53.480;-6.300;2023-03-03T05:14:20;102446.91;;;8.80;59.42
61537;BME280;48695;53.480;-6.300;2023-03-03T05:16:45;102393.56;;;8.50;59.05
61537;BME280;48695;53.480;-6.300;2023-03-03T05:19:11;102465.31;;;8.94;59.48
61537;BME280;48695;53.480;-6.300;2023-03-03T05:21:36;102467.06;;;8.93;59.53
61537;BME280;48695;53.480;-6.300;2023-03-03T05:24:04;102445.16;;;8.79;59.59
61537;BME280;48695;53.480;-6.300;2023-03-03T05:26:30;102469.66;;;8.93;59.38
61537;BME280;48695;53.480;-6.300;2023-03-03T05:28:55;102468.78;;;8.93;59.66
61537;BME280;48695;53.480;-6.300;2023-03-03T05:31:21;102463.59;;;8.93;58.97
61537;BME280;48695;53.480;-6.300;2023-03-03T05:33:47;102468.75;;;8.91;59.43
61537;BME280;48695;53.480;-6.300;2023-03-03T05:36:13;102465.28;;;8.91;59.57
61537;BME280;48695;53.480;-6.300;2023-03-03T05:38:38;102323.44;;;7.99;59.27
61537;BME280;48695;53.480;-6.300;2023-03-03T05:41:03;102453.91;;;8.84;59.26
61537;BME280;48695;53.480;-6.300;2023-03-03T05:43:29;102465.25;;;8.89;59.16
61537;BME280;48695;53.480;-6.300;2023-03-03T05:45:55;102473.06;;;8.89;59.62
61537;BME280;48695;53.480;-6.300;2023-03-03T05:48:21;102427.59;;;8.63;59.22
61537;BME280;48695;53.480;-6.300;2023-03-03T05:50:46;102453.84;;;8.78;59.49
61537;BME280;48695;53.480;-6.300;2023-03-03T05:53:12;102463.53;;;8.88;59.43
61537;BME280;48695;53.480;-6.300;2023-03-03T05:55:37;102463.53;;;8.88;59.35
61537;BME280;48695;53.480;-6.300;2023-03-03T05:58:02;102448.63;;;8.78;59.37
61537;BME280;48695;53.480;-6.300;2023-03-03T06:00:28;102464.38;;;8.87;59.37
61537;BME280;48695;53.480;-6.300;2023-03-03T06:02:53;102447.72;;;8.76;59.90
61537;BME280;48695;53.480;-6.300;2023-03-03T06:05:19;102464.34;;;8.84;59.54
61537;BME280;48695;53.480;-6.300;2023-03-03T06:07:44;102445.13;;;8.76;59.96
61537;BME280;48695;53.480;-6.300;2023-03-03T06:10:10;102462.59;;;8.86;60.09
61537;BME280;48695;53.480;-6.300;2023-03-03T06:12:35;102454.72;;;8.81;60.33
61537;BME280;48695;53.480;-6.300;2023-03-03T06:15:03;102432.94;;;8.72;59.87
61537;BME280;48695;53.480;-6.300;2023-03-03T06:17:29;102446.91;;;8.80;59.53
61537;BME280;48695;53.480;-6.300;2023-03-03T06:19:54;102432.94;;;8.72;59.77
61537;BME280;48695;53.480;-6.300;2023-03-03T06:22:20;102452.19;;;8.84;59.78
61537;BME280;48695;53.480;-6.300;2023-03-03T06:24:45;102450.44;;;8.82;59.60
61537;BME280;48695;53.480;-6.300;2023-03-03T06:27:10;102439.03;;;8.75;59.58
61537;BME280;48695;53.480;-6.300;2023-03-03T06:29:36;102418.00;;;8.60;59.79
61537;BME280;48695;53.480;-6.300;2023-03-03T06:32:01;102464.38;;;8.87;59.70
61537;BME280;48695;53.480;-6.300;2023-03-03T06:34:27;102455.66;;;8.85;59.89
61537;BME280;48695;53.480;-6.300;2023-03-03T06:36:52;102456.50;;;8.82;59.74
61537;BME280;48695;53.480;-6.300;2023-03-03T06:39:18;102440.69;;;8.70;59.83
61537;BME280;48695;53.480;-6.300;2023-03-03T06:41:43;102466.06;;;8.82;59.88
61537;BME280;48695;53.480;-6.300;2023-03-03T06:44:08;102479.97;;;8.86;60.08
61537;BME280;48695;53.480;-6.300;2023-03-03T06:46:36;102483.44;;;8.86;59.73
61537;BME280;48695;53.480;-6.300;2023-03-03T06:49:01;102478.22;;;8.86;60.25
61537;BME280;48695;53.480;-6.300;2023-03-03T06:51:33;102474.81;;;8.87;59.84
61537;BME280;48695;53.480;-6.300;2023-03-03T06:54:04;102454.66;;;8.74;59.63
61537;BME280;48695;53.480;-6.300;2023-03-03T06:56:34;102473.00;;;8.83;59.87
61537;BME280;48695;53.480;-6.300;2023-03-03T06:59:00;102476.50;;;8.85;59.63
61537;BME280;48695;53.480;-6.300;2023-03-03T07:01:28;102474.75;;;8.84;59.99
61537;BME280;48695;53.480;-6.300;2023-03-03T07:03:55;102477.28;;;8.79;59.92
61537;BME280;48695;53.480;-6.300;2023-03-03T07:06:25;102485.16;;;8.84;59.40
61537;BME280;48695;53.480;-6.300;2023-03-03T07:08:53;102495.59;;;8.84;60.14
61537;BME280;48695;53.480;-6.300;2023-03-03T07:11:21;102476.34;;;8.73;59.72
61537;BME280;48695;53.480;-6.300;2023-03-03T07:13:47;102502.59;;;8.88;58.90
61537;BME280;48695;53.480;-6.300;2023-03-03T07:16:15;102485.13;;;8.81;59.75
61537;BME280;48695;53.480;-6.300;2023-03-03T07:18:51;102497.34;;;8.85;59.80
61537;BME280;48695;53.480;-6.300;2023-03-03T07:21:25;102496.44;;;8.83;59.97
61537;BME280;48695;53.480;-6.300;2023-03-03T07:23:54;102499.94;;;8.85;59.05
61537;BME280;48695;53.480;-6.300;2023-03-03T07:26:23;102498.97;;;8.77;60.37
61537;BME280;48695;53.480;-6.300;2023-03-03T07:28:55;102495.41;;;8.70;60.46
61537;BME280;48695;53.480;-6.300;2023-03-03T07:31:29;102504.22;;;8.80;60.45
61537;BME280;48695;53.480;-6.300;2023-03-03T07:33:56;102503.28;;;8.75;60.46
61537;BME280;48695;53.480;-6.300;2023-03-03T07:36:29;102512.88;;;8.79;60.30
61537;BME280;48695;53.480;-6.300;2023-03-03T07:44:38;102532.88;;;8.80;60.38
61537;BME280;48695;53.480;-6.300;2023-03-03T07:47:30;102529.44;;;8.82;60.12
61537;BME280;48695;53.480;-6.300;2023-03-03T07:50:12;102530.25;;;8.77;60.57
61537;BME280;48695;53.480;-6.300;2023-03-03T07:52:40;102544.19;;;8.82;61.15
61537;BME280;48695;53.480;-6.300;2023-03-03T07:55:24;102534.69;;;8.86;60.44
61537;BME280;48695;53.480;-6.300;2023-03-03T07:57:52;102543.31;;;8.81;61.02
61537;BME280;48695;53.480;-6.300;2023-03-03T08:02:46;102545.97;;;8.84;60.98
61537;BME280;48695;53.480;-6.300;2023-03-03T08:10:52;102554.69;;;8.88;60.50
61537;BME280;48695;53.480;-6.300;2023-03-03T08:15:48;102551.16;;;8.83;60.79
61537;BME280;48695;53.480;-6.300;2023-03-03T08:18:24;102528.38;;;8.70;61.00
61537;BME280;48695;53.480;-6.300;2023-03-03T08:21:24;102554.66;;;8.85;60.18
61537;BME280;48695;53.480;-6.300;2023-03-03T08:23:49;102558.06;;;8.81;61.16
61537;BME280;48695;53.480;-6.300;2023-03-03T08:26:16;102565.03;;;8.82;61.04
61537;BME280;48695;53.480;-6.300;2023-03-03T08:28:42;102565.03;;;8.82;60.72
61537;BME280;48695;53.480;-6.300;2023-03-03T08:31:07;102559.84;;;8.82;60.95
61537;BME280;48695;53.480;-6.300;2023-03-03T08:33:33;102560.72;;;8.82;61.06
61537;BME280;48695;53.480;-6.300;2023-03-03T08:35:58;102560.66;;;8.79;61.00
61537;BME280;48695;53.480;-6.300;2023-03-03T08:38:24;102557.22;;;8.82;61.09
61537;BME280;48695;53.480;-6.300;2023-03-03T08:40:49;102565.06;;;8.85;60.77
61537;BME280;48695;53.480;-6.300;2023-03-03T08:43:15;102527.44;;;8.63;61.03
61537;BME280;48695;53.480;-6.300;2023-03-03T08:45:53;102572.06;;;8.89;60.65
61537;BME280;48695;53.480;-6.300;2023-03-03T08:48:20;102512.44;;;8.48;60.85
61537;BME280;48695;53.480;-6.300;2023-03-03T08:50:46;102572.94;;;8.88;60.88
61537;BME280;48695;53.480;-6.300;2023-03-03T08:53:13;102559.84;;;8.82;60.81
61537;BME280;48695;53.480;-6.300;2023-03-03T08:55:39;102580.78;;;8.91;60.88
61537;BME280;48695;53.480;-6.300;2023-03-03T08:58:05;102583.44;;;8.93;60.50
61537;BME280;48695;53.480;-6.300;2023-03-03T09:00:31;102575.63;;;8.94;60.85
61537;BME280;48695;53.480;-6.300;2023-03-03T09:02:56;102574.75;;;8.95;61.00
61537;BME280;48695;53.480;-6.300;2023-03-03T09:05:23;102582.59;;;8.97;60.93
61537;BME280;48695;53.480;-6.300;2023-03-03T09:07:48;102577.38;;;8.95;61.17
61537;BME280;48695;53.480;-6.300;2023-03-03T09:10:20;102582.66;;;9.01;60.47
61537;BME280;48695;53.480;-6.300;2023-03-03T09:12:52;102578.31;;;9.02;60.65
61537;BME280;48695;53.480;-6.300;2023-03-03T09:15:26;102585.34;;;9.06;60.75
61537;BME280;48695;53.480;-6.300;2023-03-03T09:17:54;102535.41;;;8.74;61.13
61537;BME280;48695;53.480;-6.300;2023-03-03T09:20:51;102585.44;;;9.14;60.44
61537;BME280;48695;53.480;-6.300;2023-03-03T09:23:30;102591.56;;;9.16;60.89
61537;BME280;48695;53.480;-6.300;2023-03-03T09:28:31;102599.50;;;9.23;60.96
61537;BME280;48695;53.480;-6.300;2023-03-03T09:30:59;102607.38;;;9.28;60.80
61537;BME280;48695;53.480;-6.300;2023-03-03T09:33:44;102591.69;;;9.26;60.39
61537;BME280;48695;53.480;-6.300;2023-03-03T09:38:52;102608.44;;;9.45;60.34
61537;BME280;48695;53.480;-6.300;2023-03-03T09:54:35;102620.22;;;9.84;59.60
61537;BME280;48695;53.480;-6.300;2023-03-03T10:06:07;102625.69;;;10.08;59.52
61537;BME280;48695;53.480;-6.300;2023-03-03T10:11:22;102628.34;;;10.13;59.04
61537;BME280;48695;53.480;-6.300;2023-03-03T10:19:39;102629.38;;;10.26;58.90
61537;BME280;48695;53.480;-6.300;2023-03-03T10:22:12;102635.41;;;10.23;58.94
61537;BME280;48695;53.480;-6.300;2023-03-03T10:30:46;102646.84;;;10.33;58.39
61537;BME280;48695;53.480;-6.300;2023-03-03T10:36:10;102643.34;;;10.31;58.58
61537;BME280;48695;53.480;-6.300;2023-03-03T10:39:02;102639.91;;;10.35;58.57
61537;BME280;48695;53.480;-6.300;2023-03-03T10:41:50;102650.38;;;10.38;58.35
61537;BME280;48695;53.480;-6.300;2023-03-03T10:47:20;102646.97;;;10.48;59.13
61537;BME280;48695;53.480;-6.300;2023-03-03T10:50:06;102653.16;;;10.58;58.89
61537;BME280;48695;53.480;-6.300;2023-03-03T10:52:43;102654.91;;;10.59;58.34
61537;BME280;48695;53.480;-6.300;2023-03-03T10:58:25;102656.78;;;10.74;57.93
61537;BME280;48695;53.480;-6.300;2023-03-03T11:06:21;102660.41;;;10.93;58.15
61537;BME280;48695;53.480;-6.300;2023-03-03T11:12:03;102661.38;;;11.05;58.04
61537;BME280;48695;53.480;-6.300;2023-03-03T11:17:48;102667.53;;;11.10;57.63
61537;BME280;48695;53.480;-6.300;2023-03-03T11:36:47;102677.16;;;11.17;57.77
61537;BME280;48695;53.480;-6.300;2023-03-03T11:39:19;102668.41;;;11.12;57.63
61537;BME280;48695;53.480;-6.300;2023-03-03T11:42:01;102678.91;;;11.22;57.21
61537;BME280;48695;53.480;-6.300;2023-03-03T11:44:34;102663.16;;;11.12;57.34
61537;BME280;48695;53.480;-6.300;2023-03-03T11:47:35;102685.94;;;11.29;57.18
61537;BME280;48695;53.480;-6.300;2023-03-03T11:55:46;102679.88;;;11.36;57.64
61537;BME280;48695;53.480;-6.300;2023-03-03T12:03:57;102695.72;;;11.62;56.92
61537;BME280;48695;53.480;-6.300;2023-03-03T12:09:36;102690.50;;;11.69;56.28
61537;BME280;48695;53.480;-6.300;2023-03-03T12:12:24;102692.28;;;11.72;56.24
61537;BME280;48695;53.480;-6.300;2023-03-03T12:34:25;102677.56;;;12.00;55.84
61537;BME280;48695;53.480;-6.300;2023-03-03T12:37:14;102661.88;;;12.03;56.12
61537;BME280;48695;53.480;-6.300;2023-03-03T12:40:07;102681.97;;;12.21;56.02
61537;BME280;48695;53.480;-6.300;2023-03-03T12:42:47;102668.88;;;12.26;55.79
61537;BME280;48695;53.480;-6.300;2023-03-03T12:45:20;102668.91;;;12.29;54.68
61537;BME280;48695;53.480;-6.300;2023-03-03T12:47:50;102673.28;;;12.36;54.59
61537;BME280;48695;53.480;-6.300;2023-03-03T12:56:31;102661.09;;;12.58;54.45
61537;BME280;48695;53.480;-6.300;2023-03-03T12:59:10;102665.47;;;12.63;54.41
61537;BME280;48695;53.480;-6.300;2023-03-03T13:15:01;102647.97;;;12.71;53.48
61537;BME280;48695;53.480;-6.300;2023-03-03T13:17:36;102639.22;;;12.69;53.78
61537;BME280;48695;53.480;-6.300;2023-03-03T13:25:50;102641.84;;;12.83;54.01
61537;BME280;48695;53.480;-6.300;2023-03-03T13:28:39;102640.97;;;12.89;53.47
61537;BME280;48695;53.480;-6.300;2023-03-03T13:33:36;102616.50;;;12.81;52.89
61537;BME280;48695;53.480;-6.300;2023-03-03T13:36:06;102635.69;;;13.03;52.61
61537;BME280;48695;53.480;-6.300;2023-03-03T13:38:38;102635.69;;;13.07;52.37
61537;BME280;48695;53.480;-6.300;2023-03-03T13:41:24;102628.66;;;13.12;53.26
61537;BME280;48695;53.480;-6.300;2023-03-03T13:44:08;102637.41;;;13.17;52.71
61537;BME280;48695;53.480;-6.300;2023-03-03T13:52:19;102633.91;;;13.12;51.94
61537;BME280;48695;53.480;-6.300;2023-03-03T13:57:50;102637.47;;;12.99;51.72
61537;BME280;48695;53.480;-6.300;2023-03-03T14:05:56;102632.22;;;12.81;52.56
61537;BME280;48695;53.480;-6.300;2023-03-03T14:08:59;102625.25;;;12.72;52.66
61537;BME280;48695;53.480;-6.300;2023-03-03T14:16:51;102622.63;;;12.69;52.70
61537;BME280;48695;53.480;-6.300;2023-03-03T14:19:34;102623.50;;;12.69;52.97
61537;BME280;48695;53.480;-6.300;2023-03-03T14:22:29;102620.00;;;12.80;53.12
61537;BME280;48695;53.480;-6.300;2023-03-03T14:25:07;102623.50;;;12.85;53.03
61537;BME280;48695;53.480;-6.300;2023-03-03T14:28:00;102624.31;;;12.97;52.77
61537;BME280;48695;53.480;-6.300;2023-03-03T14:35:38;102616.44;;;13.19;50.83
61537;BME280;48695;53.480;-6.300;2023-03-03T14:38:18;102620.78;;;13.28;51.61
61537;BME280;48695;53.480;-6.300;2023-03-03T14:40:46;102588.44;;;13.16;50.62
61537;BME280;48695;53.480;-6.300;2023-03-03T14:43:45;102614.63;;;13.38;51.64
61537;BME280;48695;53.480;-6.300;2023-03-03T14:49:13;102605.88;;;13.37;51.14
61537;BME280;48695;53.480;-6.300;2023-03-03T14:51:43;102611.16;;;13.34;50.02
61537;BME280;48695;53.480;-6.300;2023-03-03T14:59:23;102604.19;;;13.22;49.49
61537;BME280;48695;53.480;-6.300;2023-03-03T15:04:40;102597.19;;;13.12;50.06
61537;BME280;48695;53.480;-6.300;2023-03-03T15:07:35;102596.31;;;13.12;51.01
61537;BME280;48695;53.480;-6.300;2023-03-03T15:10:03;102591.13;;;12.98;50.25
61537;BME280;48695;53.480;-6.300;2023-03-03T15:12:37;102596.38;;;12.98;49.69
61537;BME280;48695;53.480;-6.300;2023-03-03T15:26:22;102591.16;;;12.66;50.43
61537;BME280;48695;53.480;-6.300;2023-03-03T15:28:32;102593.81;;;12.58;50.92
61537;BME280;48695;53.480;-6.300;2023-03-03T15:36:15;102584.22;;;12.42;51.14
61537;BME280;48695;53.480;-6.300;2023-03-03T15:44:18;102591.22;;;12.37;51.46
61537;BME280;48695;53.480;-6.300;2023-03-03T15:49:40;102599.03;;;12.31;51.53
61537;BME280;48695;53.480;-6.300;2023-03-03T15:55:12;102593.81;;;12.28;52.06
61537;BME280;48695;53.480;-6.300;2023-03-03T15:58:31;102592.94;;;12.27;51.89
61537;BME280;48695;53.480;-6.300;2023-03-03T16:03:37;102589.44;;;12.19;51.82
61537;BME280;48695;53.480;-6.300;2023-03-03T16:06:18;102586.81;;;12.20;52.46
61537;BME280;48695;53.480;-6.300;2023-03-03T16:09:05;102596.44;;;12.18;52.51
61537;BME280;48695;53.480;-6.300;2023-03-03T16:11:39;102597.31;;;12.17;52.32
61537;BME280;48695;53.480;-6.300;2023-03-03T16:20:01;102607.75;;;12.14;52.19
61537;BME280;48695;53.480;-6.300;2023-03-03T16:28:00;102613.00;;;12.02;52.04
61537;BME280;48695;53.480;-6.300;2023-03-03T16:38:31;102604.16;;;11.73;51.83
61537;BME280;48695;53.480;-6.300;2023-03-03T16:41:00;102618.13;;;11.78;51.93
61537;BME280;48695;53.480;-6.300;2023-03-03T16:46:45;102617.19;;;11.65;51.83
61537;BME280;48695;53.480;-6.300;2023-03-03T16:49:19;102617.22;;;11.62;52.53
61537;BME280;48695;53.480;-6.300;2023-03-03T16:51:52;102618.06;;;11.56;52.32
61537;BME280;48695;53.480;-6.300;2023-03-03T16:54:33;102614.56;;;11.54;52.57
61537;BME280;48695;53.480;-6.300;2023-03-03T16:59:43;102618.03;;;11.47;52.58
61537;BME280;48695;53.480;-6.300;2023-03-03T17:04:58;102612.75;;;11.44;52.67
61537;BME280;48695;53.480;-6.300;2023-03-03T17:10:35;102613.63;;;11.40;53.04
61537;BME280;48695;53.480;-6.300;2023-03-03T17:22:00;102625.78;;;11.26;53.17
61537;BME280;48695;53.480;-6.300;2023-03-03T17:27:24;102629.19;;;11.11;53.60
61537;BME280;48695;53.480;-6.300;2023-03-03T17:33:27;102637.81;;;11.04;53.81
61537;BME280;48695;53.480;-6.300;2023-03-03T17:41:34;102610.63;;;10.73;54.09
61537;BME280;48695;53.480;-6.300;2023-03-03T17:44:12;102642.94;;;10.88;53.98
61537;BME280;48695;53.480;-6.300;2023-03-03T17:52:20;102637.66;;;10.78;53.97
61537;BME280;48695;53.480;-6.300;2023-03-03T18:15:09;102654.03;;;10.55;55.13
61537;BME280;48695;53.480;-6.300;2023-03-03T18:17:47;102661.81;;;10.51;55.34
61537;BME280;48695;53.480;-6.300;2023-03-03T18:21:26;102667.06;;;10.52;55.34
61537;BME280;48695;53.480;-6.300;2023-03-03T18:23:40;102667.00;;;10.48;55.70